Time;durP1;ratioP1;P1;durP2;ratioP2;P2;SDS_P1;SDS_P2;PMS_P1;PMS_P2;Temp;Humidity;BMP_temperature;BMP_pressure;BME280_temperature;BME280_humidity;BME280_pressure;Samples;Min_cycle;Max_cycle;Signal;HPM_P1;HPM_P2
2023/08/28 00:02:23;;;;;;;6.32;3.00;;;16.20;99.90;;;15.17;100.00;100395.63;5040542;28;20074;-72
2023/08/28 00:04:49;;;;;;;7.72;3.03;;;16.10;99.90;;;15.15;99.46;100400.19;5002708;28;20018;-72
2023/08/28 00:07:15;;;;;;;4.80;2.47;;;16.10;99.90;;;15.17;98.53;100405.41;5042746;28;20049;-72
2023/08/28 00:09:40;;;;;;;7.95;2.28;;;16.10;99.90;;;15.16;97.34;100401.03;5023103;28;20048;-73
2023/08/28 00:12:07;;;;;;;6.30;1.92;;;16.10;99.90;;;15.16;96.35;100398.38;5021563;28;20825;-71
2023/08/28 00:14:33;;;;;;;3.03;2.00;;;16.10;99.90;;;15.17;95.61;100405.41;5022405;28;20124;-71
2023/08/28 00:16:59;;;;;;;3.92;2.20;;;16.10;99.90;;;15.16;94.76;100404.56;5039456;28;20111;-71
2023/08/28 00:19:25;;;;;;;3.65;2.25;;;16.10;99.90;;;15.15;94.48;100407.31;5022923;28;20060;-71
2023/08/28 00:21:51;;;;;;;3.63;2.05;;;16.00;99.90;;;15.11;94.22;100408.47;5027035;28;20458;-71
2023/08/28 00:24:16;;;;;;;6.53;1.80;;;16.00;99.90;;;15.06;93.63;100402.66;5007069;28;20511;-72
2023/08/28 00:26:42;;;;;;;2.03;1.52;;;16.00;99.90;;;14.99;91.93;100407.53;5020043;28;20461;-71
2023/08/28 00:29:08;;;;;;;6.93;1.40;;;15.90;99.90;;;14.94;90.83;100414.94;5007003;28;20052;-72
2023/08/28 00:31:34;;;;;;;13.05;1.45;;;15.90;99.90;;;14.85;89.87;100408.50;5024699;28;20511;-71
2023/08/28 00:34:00;;;;;;;4.35;1.40;;;15.80;99.90;;;14.77;89.06;100416.13;5024710;28;20111;-73
2023/08/28 00:36:25;;;;;;;5.85;1.52;;;15.70;99.90;;;14.69;88.40;100415.81;5040612;28;20040;-71
2023/08/28 00:38:51;;;;;;;2.15;1.25;;;15.70;99.90;;;14.60;88.04;100413.78;5023254;28;20111;-71
2023/08/28 00:41:17;;;;;;;2.47;1.05;;;15.60;99.90;;;14.52;87.63;100420.44;5006742;28;20123;-71
2023/08/28 00:43:45;;;;;;;2.80;1.27;;;15.50;99.90;;;14.43;87.35;100414.94;5005285;28;20112;-72
2023/08/28 00:46:11;;;;;;;3.20;1.10;;;15.40;99.90;;;14.34;87.45;100424.31;5020223;28;20057;-73
2023/08/28 00:48:38;;;;;;;1.75;0.90;;;15.30;99.90;;;14.27;87.46;100423.88;5021716;28;20032;-73
2023/08/28 00:51:04;;;;;;;5.55;1.40;;;15.30;99.90;;;14.16;87.93;100435.19;5040294;28;20044;-72
2023/08/28 00:53:30;;;;;;;5.38;1.30;;;15.20;99.90;;;14.06;87.84;100431.47;5020704;28;20029;-72
2023/08/28 00:55:56;;;;;;;2.45;1.42;;;15.10;99.90;;;13.99;88.22;100438.09;5025588;28;20029;-72
2023/08/28 00:58:22;;;;;;;2.88;1.17;;;15.00;99.90;;;13.92;88.69;100444.75;5022812;28;20079;-71
2023/08/28 01:00:48;;;;;;;1.45;1.10;;;14.90;99.90;;;13.86;88.69;100438.03;5022868;28;20044;-71
2023/08/28 01:03:14;;;;;;;3.70;1.48;;;14.90;99.90;;;13.79;88.99;100433.25;5023289;28;20033;-71
2023/08/28 01:05:56;;;;;;;3.83;1.55;;;14.80;99.90;;;13.71;89.36;100434.63;5041920;28;20052;-72
2023/08/28 01:08:39;;;;;;;1.95;1.45;;;14.70;99.90;;;13.60;89.79;100438.88;5023869;28;20045;-71
2023/08/28 01:11:23;;;;;;;4.13;1.63;;;14.60;99.90;;;13.48;90.43;100440.53;5038914;28;20380;-72
2023/08/28 01:14:01;;;;;;;2.45;1.60;;;14.50;99.90;;;13.38;91.08;100447.31;5006760;28;20044;-71
2023/08/28 01:16:28;;;;;;;3.92;1.38;;;14.40;99.90;;;13.28;91.23;100445.25;5023355;28;20037;-71
2023/08/28 01:18:55;;;;;;;3.80;1.52;;;14.30;99.90;;;13.20;91.80;100439.56;5022063;28;20434;-71
2023/08/28 01:21:23;;;;;;;3.05;1.70;;;14.30;99.90;;;13.14;92.65;100439.94;5023556;28;20034;-73
2023/08/28 01:23:57;;;;;;;5.57;1.63;;;14.20;99.90;;;13.06;92.71;100435.13;5021820;28;20527;-72
2023/08/28 01:26:24;;;;;;;2.88;1.70;;;14.10;99.90;;;13.02;93.05;100430.13;5022845;28;20408;-72
2023/08/28 01:28:51;;;;;;;2.40;1.60;;;14.10;99.90;;;12.96;93.68;100430.47;5023683;28;20026;-73
2023/08/28 01:31:17;;;;;;;3.78;1.70;;;14.00;99.90;;;12.91;94.23;100438.69;5022659;28;20026;-71
2023/08/28 01:33:44;;;;;;;4.15;1.70;;;14.00;99.90;;;12.88;94.15;100445.03;5024507;28;20056;-72
2023/08/28 01:36:33;;;;;;;4.55;1.50;;;14.00;99.90;;;12.85;94.58;100432.00;5021915;28;20115;-72
2023/08/28 01:39:09;;;;;;;3.08;1.60;;;13.90;99.90;;;12.80;95.14;100436.72;5005423;28;20055;-72
2023/08/28 01:41:37;;;;;;;;;;;13.90;99.90;;;12.70;95.31;100447.00;5026022;28;20445;-71
2023/08/28 01:44:07;;;;;;;3.28;1.92;;;13.80;99.90;;;12.68;95.43;100448.03;5022805;28;19916;-72
2023/08/28 01:46:34;;;;;;;2.30;1.80;;;13.80;99.90;;;12.64;96.01;100441.22;5022165;28;20426;-72
2023/08/28 01:49:00;;;;;;;3.65;2.42;;;13.70;99.90;;;12.63;95.98;100444.78;5022686;28;20071;-71
2023/08/28 01:51:25;;;;;;;4.55;2.20;;;13.70;99.90;;;12.61;96.68;100449.31;5022584;28;20033;-71
2023/08/28 01:53:52;;;;;;;4.75;2.30;;;13.70;99.90;;;12.56;97.08;100449.59;5011056;28;20029;-71
2023/08/28 01:56:21;;;;;;;6.00;2.40;;;13.60;99.90;;;12.55;97.17;100444.41;5023080;28;20029;-71
2023/08/28 01:58:54;;;;;;;5.07;2.22;;;13.60;99.90;;;12.50;97.30;100449.97;5038325;28;20059;-72
2023/08/28 02:01:24;;;;;;;6.43;2.42;;;13.60;99.90;;;12.47;97.82;100444.88;5024586;28;20523;-72
2023/08/28 02:03:51;;;;;;;6.60;2.90;;;13.60;99.90;;;12.43;97.80;100451.25;5040267;28;20562;-73
2023/08/28 02:06:17;;;;;;;3.78;2.80;;;13.50;99.90;;;12.40;98.98;100446.19;5025803;28;20493;-72
2023/08/28 02:08:43;;;;;;;4.88;2.78;;;13.50;99.90;;;12.37;98.99;100439.25;5024407;28;20029;-71
2023/08/28 02:11:09;;;;;;;4.60;2.70;;;13.50;99.90;;;12.34;99.13;100450.00;5025964;28;20255;-71
2023/08/28 02:13:35;;;;;;;8.48;3.03;;;13.40;99.90;;;12.30;99.68;100438.78;5023565;28;20036;-71
2023/08/28 02:16:02;;;;;;;4.18;2.78;;;13.40;99.90;;;12.27;99.93;100438.97;5026134;28;20029;-72
2023/08/28 02:18:30;;;;;;;6.00;3.08;;;13.40;99.90;;;12.24;99.99;100443.56;5045606;28;20032;-71
2023/08/28 02:20:56;;;;;;;5.65;3.10;;;13.30;99.90;;;12.19;100.00;100440.34;5044399;28;20028;-71
2023/08/28 02:23:22;;;;;;;5.88;3.17;;;13.30;99.90;;;12.18;100.00;100447.44;5027424;28;20060;-73
2023/08/28 02:25:49;;;;;;;5.18;3.47;;;13.30;99.90;;;12.16;100.00;100441.38;5025631;28;20544;-71
2023/08/28 02:28:18;;;;;;;5.93;3.45;;;13.30;99.90;;;12.13;100.00;100446.81;5044410;28;20033;-73
2023/08/28 02:30:45;;;;;;;5.28;3.85;;;13.20;99.90;;;12.08;100.00;100449.72;5044902;28;20025;-73
2023/08/28 02:33:11;;;;;;;7.65;3.95;;;13.20;99.90;;;12.05;100.00;100447.28;5042174;28;20071;-73
2023/08/28 02:35:37;;;;;;;8.50;4.20;;;13.20;99.90;;;12.03;100.00;100457.06;5024731;28;20029;-72
2023/08/28 02:38:03;;;;;;;5.68;4.35;;;13.20;99.90;;;12.03;100.00;100457.06;5025196;28;20108;-71
2023/08/28 02:40:29;;;;;;;4.53;4.00;;;13.10;99.90;;;12.03;100.00;100462.34;5031023;28;20033;-72
2023/08/28 02:42:55;;;;;;;9.23;4.18;;;13.10;99.90;;;11.99;100.00;100455.53;5027095;28;20507;-71
2023/08/28 02:45:21;;;;;;;6.38;4.15;;;13.10;99.90;;;11.98;100.00;100455.63;5024747;28;20100;-73
2023/08/28 02:47:47;;;;;;;6.53;4.45;;;13.00;99.90;;;11.92;100.00;100453.31;5023509;28;20114;-72
2023/08/28 02:50:13;;;;;;;6.65;4.35;;;13.00;99.90;;;11.87;100.00;100458.81;5043818;28;20132;-72
2023/08/28 02:52:38;;;;;;;7.85;4.50;;;12.90;99.90;;;11.81;100.00;100462.66;5043614;28;20116;-72
2023/08/28 02:55:05;;;;;;;7.00;4.57;;;12.90;99.90;;;11.77;100.00;100461.16;5026827;28;20392;-71
2023/08/28 02:57:31;;;;;;;8.23;4.75;;;12.90;99.90;;;11.74;100.00;100447.25;5006697;28;20030;-72
2023/08/28 02:59:57;;;;;;;6.25;4.63;;;12.80;99.90;;;11.69;100.00;100448.38;5024681;28;20544;-72
2023/08/28 03:02:23;;;;;;;8.40;4.95;;;12.80;99.90;;;11.68;100.00;100451.97;5023994;28;20061;-72
2023/08/28 03:04:48;;;;;;;6.28;4.25;;;12.80;99.90;;;11.64;100.00;100453.06;5025440;28;20059;-72
2023/08/28 03:07:14;;;;;;;6.63;4.70;;;12.80;99.90;;;11.62;100.00;100457.56;5025391;28;21159;-71
2023/08/28 03:09:40;;;;;;;7.95;5.40;;;12.80;99.90;;;11.60;100.00;100459.44;5042423;28;20108;-72
2023/08/28 03:12:08;;;;;;;8.68;5.30;;;12.70;99.90;;;11.58;100.00;100456.03;5041049;28;20075;-72
2023/08/28 03:14:34;;;;;;;9.02;5.35;;;12.70;99.90;;;11.54;100.00;100443.94;5024773;28;20029;-72
2023/08/28 03:17:00;;;;;;;9.80;5.45;;;12.70;99.90;;;11.50;100.00;100453.81;5023769;28;20063;-72
2023/08/28 03:19:25;;;;;;;8.45;5.00;;;12.70;99.90;;;11.47;100.00;100453.97;5006152;28;20048;-72
2023/08/28 03:21:51;;;;;;;8.07;5.22;;;12.60;99.90;;;11.43;100.00;100455.09;5010632;28;20564;-71
2023/08/28 03:24:17;;;;;;;8.05;4.88;;;12.60;99.90;;;11.40;100.00;100457.91;5022042;28;20704;-72
2023/08/28 03:26:43;;;;;;;8.82;4.82;;;12.50;99.90;;;11.35;100.00;100456.44;5040111;28;20487;-71
2023/08/28 03:29:08;;;;;;;7.85;4.82;;;12.50;99.90;;;11.31;100.00;100447.84;5043258;28;20479;-72
2023/08/28 03:31:34;;;;;;;8.85;5.28;;;12.40;99.90;;;11.27;100.00;100462.09;5024822;28;20060;-71
2023/08/28 03:34:00;;;;;;;7.45;5.57;;;12.40;99.90;;;11.23;100.00;100463.19;5024350;28;20053;-73
2023/08/28 03:36:26;;;;;;;6.68;4.80;;;12.30;99.90;;;11.19;100.00;100474.88;5040448;28;20060;-73
2023/08/28 03:38:51;;;;;;;6.80;4.97;;;12.30;99.90;;;11.14;100.00;100475.09;5022222;28;20052;-70
2023/08/28 03:41:17;;;;;;;9.70;5.47;;;12.30;99.90;;;11.10;100.00;100465.66;5042320;28;20103;-72
2023/08/28 03:43:43;;;;;;;8.80;5.00;;;12.20;99.90;;;11.05;100.00;100476.41;5023848;28;20040;-71
2023/08/28 03:46:09;;;;;;;8.23;5.00;;;12.20;99.90;;;11.04;100.00;100479.16;5024854;28;20033;-72
2023/08/28 03:48:34;;;;;;;8.68;4.68;;;12.20;99.90;;;11.02;100.00;100484.50;5025845;28;20022;-71
2023/08/28 03:51:00;;;;;;;6.85;5.40;;;12.20;99.90;;;11.02;100.00;100486.28;5041027;28;20103;-72
2023/08/28 03:53:27;;;;;;;7.53;5.35;;;12.20;99.90;;;11.00;100.00;100498.69;5043024;28;20063;-72
2023/08/28 03:55:53;;;;;;;10.07;5.25;;;12.20;99.90;;;11.01;100.00;100501.22;5023156;28;20448;-72
2023/08/28 03:58:20;;;;;;;6.85;4.70;;;12.20;99.90;;;10.99;100.00;100495.22;5023929;28;20040;-71
2023/08/28 04:00:47;;;;;;;7.55;5.10;;;12.20;99.90;;;10.98;100.00;100493.50;5023641;28;20034;-72
2023/08/28 04:03:13;;;;;;;8.13;5.07;;;12.20;99.90;;;10.99;100.00;100499.59;5023038;28;20025;-71
2023/08/28 04:05:39;;;;;;;7.78;5.32;;;12.20;99.90;;;10.99;100.00;100495.22;5039605;28;20108;-72
2023/08/28 04:08:05;;;;;;;8.50;4.53;;;12.20;99.90;;;11.02;100.00;100500.31;5043581;28;20111;-72
2023/08/28 04:10:31;;;;;;;9.90;5.30;;;13.10;99.90;;;11.04;100.00;100508.13;5053547;22;20048;-79
2023/08/28 04:12:56;;;;;;;10.65;5.15;;;12.20;99.90;;;11.04;100.00;100508.13;5042545;28;20035;-77
2023/08/28 04:15:22;;;;;;;6.53;5.00;;;12.20;99.90;;;11.04;100.00;100518.69;5050338;28;20244;-78
2023/08/28 04:17:48;;;;;;;6.82;5.20;;;12.20;99.90;;;11.07;100.00;100518.50;5035753;28;20060;-78
2023/08/28 04:20:15;;;;;;;8.98;5.28;;;12.20;99.90;;;11.08;100.00;100515.81;5050310;28;20060;-78
2023/08/28 04:22:45;;;;;;;9.93;4.97;;;12.20;99.90;;;11.09;100.00;100522.75;5033651;28;20037;-77
2023/08/28 04:25:13;;;;;;;9.20;4.82;;;12.20;99.90;;;11.13;100.00;100522.63;5043428;28;20386;-78
2023/08/28 04:27:39;;;;;;;6.45;5.07;;;12.20;99.90;;;11.17;100.00;100521.53;5030036;28;20463;-78
2023/08/28 04:30:07;;;;;;;11.65;5.10;;;12.20;99.90;;;11.22;100.00;100538.78;5048957;28;20033;-78
2023/08/28 04:32:34;;;;;;;6.78;5.30;;;12.30;99.90;;;11.25;100.00;100528.09;5029024;28;20135;-78
2023/08/28 04:35:00;;;;;;;7.93;5.20;;;12.30;99.90;;;11.29;100.00;100524.38;5034505;28;20104;-78
2023/08/28 04:37:26;;;;;;;7.75;5.72;;;12.40;99.90;;;11.34;100.00;100526.75;5050590;28;20029;-79
2023/08/28 04:39:53;;;;;;;7.05;5.00;;;12.40;99.90;;;11.41;100.00;100522.84;5045009;28;20029;-78
2023/08/28 04:42:19;;;;;;;8.20;5.25;;;12.40;99.90;;;11.47;100.00;100516.41;5043878;28;20036;-78
2023/08/28 04:44:46;;;;;;;9.25;4.97;;;12.50;99.90;;;11.52;100.00;100514.38;5048681;28;20106;-78
2023/08/28 04:47:13;;;;;;;6.88;4.85;;;12.50;99.90;;;11.58;100.00;100514.03;5052634;28;20028;-78
2023/08/28 04:49:39;;;;;;;8.85;4.93;;;12.60;99.90;;;11.67;100.00;100521.44;5034628;28;20112;-78
2023/08/28 04:52:05;;;;;;;7.28;4.93;;;12.60;99.90;;;11.77;100.00;100508.63;5043800;28;20029;-78
2023/08/28 04:54:33;;;;;;;6.65;4.78;;;13.00;99.90;;;13.37;100.00;100522.31;5051543;28;20486;-78
2023/08/28 04:56:58;;;;;;;5.15;4.05;;;14.30;99.90;;;16.43;90.20;100544.97;5036037;28;20028;-78
2023/08/28 04:59:24;;;;;;;6.85;3.60;;;15.70;99.90;;;18.69;76.44;100545.06;5035859;28;20086;-78
2023/08/28 05:01:50;;;;;;;4.63;3.13;;;17.10;99.90;;;20.59;67.54;100560.56;5033141;28;20149;-78
2023/08/28 05:04:16;;;;;;;6.07;3.20;;;18.40;99.90;;;22.18;61.85;100577.75;5046480;28;20474;-79
2023/08/28 05:06:42;;;;;;;5.25;2.75;;;19.50;99.90;;;23.45;57.82;100591.00;5049706;28;20027;-77
2023/08/28 05:09:07;;;;;;;5.93;3.00;;;20.50;99.90;;;24.62;54.86;100600.25;5052147;28;20063;-78
2023/08/28 05:11:33;;;;;;;8.23;2.63;;;21.40;99.90;;;25.77;51.80;100614.50;5052035;28;20132;-78
2023/08/28 05:13:59;;;;;;;2.70;2.50;;;22.20;99.90;;;26.84;49.56;100622.94;5032693;28;20164;-78
2023/08/28 05:16:25;;;;;;;8.05;2.83;;;23.00;99.90;;;27.70;47.33;100647.84;5034106;28;20056;-79
2023/08/28 05:18:50;;;;;;;3.42;2.17;;;23.70;99.90;;;28.33;45.68;100653.72;5033779;28;20056;-78
2023/08/28 05:21:16;;;;;;;4.65;2.40;;;24.20;99.90;;;28.91;44.24;100664.59;5034533;28;20112;-78
2023/08/28 05:23:42;;;;;;;3.88;2.30;;;24.70;99.90;;;29.45;42.79;100684.94;5042758;28;20107;-78
2023/08/28 05:26:08;;;;;;;5.82;2.58;;;25.10;99.90;;;30.09;42.17;100704.78;5051338;28;20104;-78
2023/08/28 05:28:37;;;;;;;3.33;2.45;;;25.60;99.90;;;30.79;40.61;100708.25;5034364;28;20021;-79
2023/08/28 05:31:03;;;;;;;6.40;2.13;;;26.10;99.90;;;31.26;39.81;100723.63;5042467;28;20510;-79
2023/08/28 05:33:31;;;;;;;2.08;1.80;;;26.50;99.90;;;31.59;38.99;100731.00;5034057;28;20082;-78
2023/08/28 05:35:57;;;;;;;5.43;1.80;;;26.80;99.90;;;31.99;38.08;100744.63;5055862;28;20035;-79
2023/08/28 05:38:23;;;;;;;6.30;2.20;;;27.10;99.90;;;32.33;37.09;100752.69;5038549;28;20040;-78
2023/08/28 05:40:49;;;;;;;3.03;1.90;;;27.40;99.30;;;32.62;36.67;100759.53;5051008;28;20056;-78
2023/08/28 05:43:15;;;;;;;3.63;2.00;;;27.60;98.60;;;32.79;36.61;100762.63;5055214;28;20032;-78
2023/08/28 05:45:41;;;;;;;4.63;1.90;;;27.80;98.20;;;32.99;36.05;100766.06;5036948;28;20032;-78
2023/08/28 05:48:07;;;;;;;5.25;1.80;;;27.90;97.70;;;32.83;35.75;100763.81;5046416;28;20035;-78
2023/08/28 05:50:33;;;;;;;5.00;2.03;;;28.10;97.60;;;33.54;35.16;100781.88;5039035;28;20481;-78
2023/08/28 05:52:59;;;;;;;5.22;2.20;;;28.40;97.40;;;33.95;34.23;100796.06;5035970;28;20120;-77
2023/08/28 05:55:25;;;;;;;3.47;1.80;;;28.60;96.10;;;33.97;34.27;100807.59;5047140;28;20032;-77
2023/08/28 05:57:51;;;;;;;3.67;1.88;;;28.70;96.40;;;33.00;35.00;100791.44;5051674;28;20439;-78
2023/08/28 06:00:17;;;;;;;5.25;1.85;;;28.20;96.00;;;29.54;39.27;100759.69;5031261;28;20044;-78
2023/08/28 06:02:43;;;;;;;5.07;1.67;;;27.00;96.80;;;26.77;43.87;100709.25;5036686;28;20031;-79
2023/08/28 06:05:09;;;;;;;6.78;1.98;;;26.00;98.00;;;27.39;43.37;100718.31;5037752;28;20505;-78
2023/08/28 06:07:36;;;;;;;4.40;1.77;;;25.50;99.00;;;27.51;42.92;100711.41;5037902;28;20115;-78
2023/08/28 06:10:02;;;;;;;3.60;1.90;;;25.00;99.50;;;24.97;47.19;100685.28;5053573;28;20145;-78
2023/08/28 06:12:28;;;;;;;6.53;1.90;;;24.10;99.90;;;22.75;51.74;100653.53;5052363;28;20030;-78
2023/08/28 06:14:54;;;;;;;6.57;2.08;;;23.00;99.90;;;21.06;55.97;100648.19;5037404;28;20093;-78
2023/08/28 06:17:21;;;;;;;3.55;2.30;;;21.80;99.90;;;19.62;59.41;100627.03;5061920;28;20025;-78
2023/08/28 06:19:47;;;;;;;6.13;2.10;;;20.80;99.90;;;18.60;62.29;100619.53;5064145;28;20033;-78
2023/08/28 06:22:13;;;;;;;5.25;2.20;;;19.90;99.90;;;17.92;64.82;100620.59;5051607;28;20063;-78
2023/08/28 06:24:39;;;;;;;4.03;2.20;;;19.20;99.90;;;17.36;67.02;100608.03;5034250;28;20048;-77
2023/08/28 06:27:04;;;;;;;5.25;2.10;;;18.60;99.90;;;17.04;68.88;100610.50;5066487;28;20052;-77
2023/08/28 06:29:30;;;;;;;5.30;2.40;;;18.30;99.90;;;16.79;70.34;100594.53;5052435;28;20067;-78
2023/08/28 06:31:56;;;;;;;6.65;2.90;;;18.00;99.90;;;16.67;70.92;100584.81;5038631;28;20057;-78
2023/08/28 06:34:22;;;;;;;10.93;2.70;;;17.70;99.90;;;16.55;71.64;100583.94;5038469;28;20111;-78
2023/08/28 06:36:49;;;;;;;5.28;2.55;;;17.60;99.90;;;16.43;72.21;100581.31;5046223;28;20032;-78
2023/08/28 06:39:15;;;;;;;5.22;2.40;;;17.40;99.90;;;16.28;72.91;100583.28;5055466;28;20514;-78
2023/08/28 06:41:46;;;;;;;8.02;2.85;;;17.20;99.90;;;16.06;73.80;100578.69;5051927;28;20041;-78
2023/08/28 06:44:11;;;;;;;3.88;2.45;;;17.10;99.90;;;16.02;74.85;100582.53;5050919;28;20072;-78
2023/08/28 06:46:37;;;;;;;7.47;2.47;;;17.00;99.90;;;15.97;74.97;100572.22;5053539;28;20047;-77
2023/08/28 06:49:04;;;;;;;5.55;2.40;;;16.90;99.90;;;15.88;75.13;100573.75;5045119;28;20024;-78
2023/08/28 06:51:30;;;;;;;5.95;2.78;;;16.90;99.90;;;15.78;75.07;100573.53;5052080;28;20036;-78
2023/08/28 06:53:56;;;;;;;5.63;2.70;;;16.80;99.90;;;15.76;75.47;100563.97;5054011;28;21094;-78
2023/08/28 06:56:22;;;;;;;3.88;2.30;;;16.70;99.90;;;15.66;76.09;100562.91;5037417;28;20556;-79
2023/08/28 06:58:48;;;;;;;10.63;2.55;;;16.70;99.90;;;15.70;76.11;100569.69;5053235;28;20032;-78
2023/08/28 07:01:14;;;;;;;6.53;2.47;;;16.70;99.90;;;15.59;76.46;100558.03;5052428;28;20119;-77
2023/08/28 07:03:40;;;;;;;6.47;2.45;;;16.60;99.90;;;15.59;76.66;100570.44;5063228;28;20654;-78
2023/08/28 07:06:06;;;;;;;5.45;2.35;;;16.60;99.90;;;15.58;77.31;100564.28;5038043;28;20454;-78
2023/08/28 07:08:31;;;;;;;7.40;2.67;;;16.50;99.90;;;15.52;77.69;100575.34;5029185;28;20113;-77
2023/08/28 07:10:57;;;;;;;5.97;2.30;;;16.50;99.90;;;15.45;77.73;100571.41;5052978;28;20045;-78
2023/08/28 07:13:23;;;;;;;9.65;2.50;;;16.50;99.90;;;15.45;78.27;100578.53;5035064;28;20083;-77
2023/08/28 07:15:49;;;;;;;3.83;2.28;;;16.40;99.90;;;15.35;78.04;100581.81;5035013;28;20028;-78
2023/08/28 07:18:16;;;;;;;3.75;1.95;;;16.30;99.90;;;15.33;78.58;100583.75;5051298;28;20067;-78
2023/08/28 07:20:43;;;;;;;8.35;2.08;;;16.30;99.90;;;15.25;78.63;100578.09;5051440;28;20835;-78
2023/08/28 07:23:09;;;;;;;7.60;1.85;;;16.20;99.90;;;15.18;78.72;100588.28;5053025;28;20025;-78
2023/08/28 07:25:35;;;;;;;7.00;2.30;;;16.20;99.90;;;15.13;79.31;100579.78;5045784;28;20410;-79
2023/08/28 07:28:01;;;;;;;4.82;2.50;;;16.10;99.90;;;15.03;79.38;100584.03;5033303;28;20116;-78
2023/08/28 07:30:26;;;;;;;6.40;2.17;;;16.10;99.90;;;15.02;79.47;100584.13;5034491;28;20064;-78
2023/08/28 07:32:52;;;;;;;8.55;2.80;;;16.10;99.90;;;15.04;79.67;100587.53;5051010;28;20028;-78
2023/08/28 07:35:18;;;;;;;6.88;2.75;;;16.00;99.90;;;14.95;79.66;100600.44;5035559;28;20587;-79
2023/08/28 07:37:44;;;;;;;4.03;2.53;;;16.00;99.90;;;14.92;79.93;100597.13;5046870;28;20837;-78
2023/08/28 07:40:09;;;;;;;3.33;2.20;;;16.00;99.90;;;14.92;80.09;100600.66;5051436;28;20063;-77
2023/08/28 07:42:37;;;;;;;4.35;2.03;;;15.90;99.90;;;14.94;80.39;100597.88;5059780;28;20128;-77
2023/08/28 07:45:04;;;;;;;6.32;2.00;;;15.90;99.90;;;14.96;80.43;100607.44;5034279;28;20025;-77
2023/08/28 07:47:30;;;;;;;5.35;2.13;;;16.00;99.90;;;14.96;80.23;100610.06;5034764;28;20033;-78
2023/08/28 07:49:56;;;;;;;5.97;2.40;;;16.00;99.90;;;14.97;79.98;100611.78;5052279;28;20024;-78
2023/08/28 07:52:22;;;;;;;5.38;2.17;;;16.00;99.90;;;14.97;79.90;100611.78;5047231;28;20033;-77
2023/08/28 07:54:48;;;;;;;5.70;2.67;;;15.90;99.90;;;14.88;79.94;100600.94;5050774;28;20059;-78
2023/08/28 07:57:13;;;;;;;5.80;2.60;;;15.90;99.90;;;14.84;80.58;100602.97;5035303;28;20036;-78
2023/08/28 07:59:39;;;;;;;4.18;2.70;;;15.80;99.90;;;14.79;80.98;100599.75;5034048;28;20550;-77
2023/08/28 08:02:05;;;;;;;3.40;2.13;;;15.80;99.90;;;14.79;81.31;100593.59;5051515;28;20029;-77
2023/08/28 08:04:32;;;;;;;4.65;2.33;;;15.80;99.90;;;14.83;81.21;100598.59;5035793;28;20063;-77
2023/08/28 08:06:58;;;;;;;6.07;2.90;;;15.80;99.90;;;14.84;81.31;100602.97;5050069;28;20024;-77
2023/08/28 08:09:24;;;;;;;3.58;2.17;;;15.90;99.90;;;14.90;80.79;100605.22;5029806;28;20115;-77
2023/08/28 08:11:50;;;;;;;8.88;2.50;;;15.90;99.90;;;14.90;80.96;100615.81;5051722;28;20036;-77
2023/08/28 08:14:17;;;;;;;6.47;2.70;;;15.90;99.90;;;14.85;81.51;100611.75;5052068;28;20474;-77
2023/08/28 08:16:42;;;;;;;6.47;2.80;;;15.80;99.90;;;14.86;81.78;100626.69;5033953;28;20033;-78
2023/08/28 08:19:08;;;;;;;8.80;3.15;;;15.90;99.90;;;14.93;81.92;100622.72;5034887;28;20494;-77
2023/08/28 08:21:34;;;;;;;6.75;2.70;;;15.90;99.90;;;15.01;81.74;100624.84;5049491;28;20479;-77
2023/08/28 08:24:00;;;;;;;6.85;2.35;;;16.00;99.90;;;15.12;81.17;100625.81;5034171;28;20181;-77
2023/08/28 08:26:26;;;;;;;5.68;2.42;;;16.00;99.90;;;15.21;80.79;100634.13;5061707;28;20107;-77
2023/08/28 08:28:52;;;;;;;7.43;2.55;;;16.10;99.90;;;15.30;81.01;100631.69;5053807;28;20036;-77
2023/08/28 08:31:18;;;;;;;4.80;2.63;;;16.20;99.90;;;15.41;81.47;100630.13;5051694;28;20568;-78
2023/08/28 08:33:44;;;;;;;6.57;2.42;;;16.30;99.90;;;15.50;81.24;100632.13;5050834;28;20415;-77
2023/08/28 08:36:14;;;;;;;8.10;2.60;;;16.30;99.90;;;15.55;80.96;100622.91;5043018;28;20119;-77
2023/08/28 08:38:40;;;;;;;6.28;2.10;;;16.40;99.90;;;15.62;81.28;100623.31;5024815;28;20028;-77
2023/08/28 08:41:08;;;;;;;4.57;2.00;;;16.50;99.90;;;15.74;80.83;100617.22;5033353;28;20033;-78
2023/08/28 08:43:35;;;;;;;3.13;1.48;;;16.60;99.90;;;15.96;80.25;100627.16;5033521;28;20033;-77
2023/08/28 08:46:06;;;;;;;2.45;1.70;;;16.80;99.90;;;16.16;79.57;100623.06;5047714;28;20512;-77
2023/08/28 08:48:36;;;;;;;4.32;2.63;;;16.90;99.90;;;16.16;79.21;100627.53;5051724;28;20432;-77
2023/08/28 08:51:07;;;;;;;4.13;2.13;;;17.00;99.90;;;16.23;78.96;100627.94;5031814;28;20056;-77
2023/08/28 08:54:06;;;;;;;3.67;2.00;;;17.00;99.90;;;16.36;78.70;100631.41;5038215;28;20051;-77
2023/08/28 08:56:35;;;;;;;11.77;2.63;;;17.20;99.90;;;16.43;77.66;100642.44;5047918;28;20024;-77
2023/08/28 08:59:03;;;;;;;5.07;2.20;;;17.20;99.90;;;16.42;77.23;100641.59;5047400;28;20043;-77
2023/08/28 09:01:30;;;;;;;8.38;2.50;;;17.20;99.90;;;16.37;77.47;100641.94;5043732;28;20049;-77
2023/08/28 09:04:09;;;;;;;6.00;2.33;;;17.20;99.90;;;16.43;77.97;100627.34;5043734;28;20032;-77
2023/08/28 09:06:37;;;;;;;6.82;2.40;;;17.20;99.90;;;16.56;77.86;100624.66;5050998;28;20104;-77
2023/08/28 09:09:07;;;;;;;6.63;2.53;;;17.30;99.90;;;16.73;78.13;100620.75;5048476;28;20061;-77
2023/08/28 09:11:36;;;;;;;3.28;2.10;;;17.50;99.90;;;16.87;77.31;100625.94;5053934;28;20025;-77
2023/08/28 09:14:06;;;;;;;5.93;2.30;;;17.60;99.90;;;16.97;76.34;100618.94;5054963;28;20023;-77
2023/08/28 09:16:34;;;;;;;4.00;2.50;;;17.70;99.90;;;17.09;76.69;100622.50;5045636;28;20037;-77
2023/08/28 09:19:04;;;;;;;7.13;2.70;;;17.80;99.90;;;17.10;75.90;100624.19;5065008;28;20031;-77
2023/08/28 09:21:38;;;;;;;3.90;2.17;;;17.80;99.90;;;17.06;75.63;100630.69;5047188;28;20487;-77
2023/08/28 09:24:09;;;;;;;3.92;2.40;;;17.80;99.90;;;16.93;75.27;100625.47;5037438;28;20094;-77
2023/08/28 09:26:38;;;;;;;5.80;2.65;;;17.70;99.90;;;16.91;75.36;100618.56;5037111;28;20531;-77
2023/08/28 09:29:08;;;;;;;6.55;2.67;;;17.70;99.90;;;17.02;75.54;100610.63;5053539;28;20692;-77
2023/08/28 09:31:42;;;;;;;7.55;2.80;;;17.90;99.90;;;17.31;76.10;100607.56;5065349;28;20060;-78
2023/08/28 09:34:11;;;;;;;7.38;2.35;;;18.00;99.90;;;17.59;74.91;100614.25;5056350;28;20749;-77
2023/08/28 09:36:42;;;;;;;4.85;2.22;;;18.20;99.90;;;17.68;73.57;100618.03;5051958;28;20056;-77
2023/08/28 09:39:12;;;;;;;5.53;2.60;;;18.30;99.90;;;17.61;72.54;100617.66;5035981;28;20568;-77
2023/08/28 09:41:49;;;;;;;3.45;2.40;;;18.30;99.90;;;17.47;72.62;100613.38;5051733;28;20040;-77
2023/08/28 09:44:17;;;;;;;7.65;2.95;;;18.20;99.90;;;17.41;73.16;100613.88;5050068;28;20057;-77
2023/08/28 09:46:44;;;;;;;6.10;2.42;;;18.20;99.90;;;17.39;72.83;100619.31;5051591;28;20046;-77
2023/08/28 09:49:14;;;;;;;6.72;2.33;;;18.20;99.90;;;17.39;72.88;100627.28;5052629;28;20131;-77
2023/08/28 09:51:46;;;;;;;7.20;2.72;;;18.20;99.90;;;17.47;73.95;100629.34;5052686;28;20103;-77
2023/08/28 09:54:16;;;;;;;3.85;2.53;;;18.20;99.90;;;17.59;74.04;100640.88;5034128;28;20033;-77
2023/08/28 09:56:46;;;;;;;4.68;2.05;;;18.30;99.90;;;17.60;72.62;100640.78;5053540;28;20016;-78
2023/08/28 09:59:15;;;;;;;5.78;2.25;;;18.30;99.90;;;17.54;72.36;100637.75;5033721;28;20040;-76
2023/08/28 10:01:41;;;;;;;6.68;2.63;;;18.30;99.90;;;17.47;72.06;100631.16;5034683;28;20045;-77
2023/08/28 10:04:13;;;;;;;3.55;1.73;;;18.40;99.90;;;17.78;71.67;100640.31;5051759;28;20072;-77
2023/08/28 10:06:53;;;;;;;5.72;1.98;;;18.60;99.90;;;18.14;71.10;100647.25;5035276;28;20049;-77
2023/08/28 10:09:25;;;;;;;4.03;1.70;;;18.90;99.90;;;18.50;70.35;100647.06;5038069;28;20021;-77
2023/08/28 10:11:54;;;;;;;4.57;1.67;;;19.20;99.90;;;18.80;69.62;100643.72;5043499;28;20086;-77